Tiempo atmosférico en la estación meteorológica de A Coruña Aeropuerto, A Coruña (98 m.)



Fecha
DESCASC
Temp. máxima en grados centígrados (hora)
DESCASC
Temp. mínima en grados centígrados (hora)
DESCASC
Temp. media en grados centígrados
DESCASC
Racha de viento máxima en m/sg (hora)
DESCASC
Velocidad máxima media en intervalos de 10 minutos(hora)
DESCASC
Precipitaciones diarias en mm
DESCASC
Precipitaciones de 00:00 a 06:00 en mm
DESCASC
Precipitaciones de 06:00 a 12:00 en mm
DESCASC
Precipitaciones de 12:00 a 18:00 en mm
DESCASC
Precipitaciones de 18:00 a 24:00 en mm
DESCASC
05-04-2020 18.7 (17:20) 12.5 (23:50) 15.6 15.28 (03:40) 9.17 (05:00) 12.2 0 2.8 9.4 0
04-04-2020 22.6 (16:20) 6.2 (06:00) 14.4 14.44 (12:50) 9.72 (13:40) 0 0 0 0 0
03-04-2020 18.1 (14:30) 1.4 (08:40) 9.8 7.22 (18:00) 3.89 (18:30) 0 0 0 0 0
02-04-2020 14.7 (17:30) 8.8 (00:00) 11.8 8.89 (19:10) 5.28 (19:10) 0 0 0 0 0
01-04-2020 13.8 (18:00) 7.2 (00:00) 10.5 8.89 (20:30) 5.56 (20:40) 5.7 2.5 3.2 0 0
31-03-2020 10.7 (16:20) 4.3 (00:00) 7.5 15.28 (14:50) 10 (13:20) 0.2 0 0 0 0.2
30-03-2020 10.8 (14:00) 4.9 (00:00) 7.9 17.5 (14:10) 11.39 (17:10) 0 0 0 0 0
29-03-2020 17.1 (16:40) 2.9 (00:00) 10 15 (22:30) 8.89 (20:10) 0 0 0 0 0
28-03-2020 19.4 (13:40) 2.8 (00:00) 11.1 8.33 (17:00) 5 (14:50) 0 0 0 0 0
27-03-2020 16.1 (14:20) 4.6 (00:00) 10.4 10.83 (17:10) 6.39 (15:40) 0 0 0 0 0
26-03-2020 13.9 (18:10) 6.5 (00:00) 10.2 11.39 (14:40) 6.67 (14:40) 0 0 0 0 0
25-03-2020 16 (13:40) 5.8 (00:00) 10.9 8.89 (15:20) 5.56 (16:00) 0 0 0 0 0
24-03-2020 19.6 (17:50) 5.7 (00:00) 12.7 6.67 (14:50) 4.17 (14:20) 0 0 0 0 0
23-03-2020 12.8 (13:10) 9.8 (00:00) 11.3 9.72 (12:30) 6.39 (16:10) 0 0 0 0 0
22-03-2020 14.5 (16:30) 11.2 (05:50) 12.8 9.17 (15:40) 5 (16:20) 0 0 0 0 0
21-03-2020 15.3 (12:20) 11.4 (00:00) 13.3 7.22 (17:20) 4.72 (17:20) 0.2 0 0 0.2 0
20-03-2020 16 (15:10) 11.3 (00:00) 13.7 6.67 (17:20) 4.17 (17:40) 27.6 4.7 11.6 3.4 7.9
19-03-2020 14.3 (15:00) 8.1 (00:00) 11.2 7.22 (16:00) 4.44 (16:00) 1.1 0 0 0 1.1
18-03-2020 18.5 (12:10) 4.7 (00:00) 11.6 7.22 (16:00) 4.72 (16:10) 0 0 0 0 0
17-03-2020 18 (15:50) 7.8 (00:00) 12.9 8.33 (14:20) 5 (14:20) 0 0 0 0 0
16-03-2020 12.5 (15:00) 6.9 (00:00) 9.7 16.11 (15:20) 7.78 (03:20) 0.5 0.5 0 0 0
15-03-2020 11.3 (10:00) 4.5 (00:00) 7.9 13.33 (10:00) 10 (10:00) 9.9 0 1.9 4.9 3.1
14-03-2020 15.2 (14:20) 5.3 (00:00) 10.3 7.78 (16:30) 4.17 (15:30) 0 0 0 0 0
13-03-2020 12.8 (15:50) 8.5 (01:00) 10.7 10.28 (15:20) 6.39 (16:40) 0 0 0 0 0
12-03-2020 13.3 (11:00) 8.8 (00:00) 11.1 10.28 (13:50) 5.83 (15:40) 0 0 0 0 0
11-03-2020 16.2 (13:20) 10.9 (00:00) 13.6 8.89 (16:50) 5 (15:40) 0 0 0 0 0
10-03-2020 16.6 (15:30) 8 (00:00) 12.3 8.89 (07:00) 5 (11:10) 0 0 0 0 0
09-03-2020 15.1 (14:30) 6 (00:00) 10.6 9.17 (14:20) 5.28 (15:30) 0 0 0 0 0
08-03-2020 15.3 (14:50) 8.3 (00:00) 11.8 13.89 (07:30) 10 (07:50) 0.2 0 0.2 0 0

Gráficas

Temp. máximas Temp. mínimas Temp. medias Precipitaciones Rachas de viento máximas Velocidades máximas media en intervalos de 10 minutos

Datos horarios

Fecha y hora oficial Temperatura (ºC) Velocidad del viento (km/h) Dirección del viento Racha (km/h) Dirección de racha Precipitación (mm) Presión (hPa) Tendencia (hPa) Humedad (%)
2020-04-06 23:00:00 14.6 4 Sudeste 8 Sudeste 0 1008.7 0.9 67
2020-04-06 22:00:00 14.8 2 Noroeste 9 Noroeste 0 1008.3 0.8 64
2020-04-06 21:00:00 15.3 5 Noroeste 18 Nordeste 0 1007.8 0.3 61
2020-04-06 20:00:00 16.2 11 Norte 17 Nordeste 0 1007.8 0.1 62
2020-04-06 19:00:00 15.8 6 Norte 18 Norte 0 1007.5 -0.5 60
2020-04-06 18:00:00 15.9 10 Norte 22 Norte 0 1007.5 -0.3 56
2020-04-06 17:00:00 15.7 12 Norte 21 Norte 0 1007.7 0 62
2020-04-06 16:00:00 15.6 9 Norte 22 Norte 0 1008 0.3 69
2020-04-06 15:00:00 15.1 13 Norte 21 Norte 0 1007.8 0.3 69
2020-04-06 14:00:00 17.2 5 Este 13 Sudeste 0 1007.7 0.6 55
2020-04-06 13:00:00 16 5 Sudeste 13 Sudeste 0 1007.7 0.9 66
2020-04-06 12:00:00 13.6 5 Sudeste 11 Sudeste 0 1007.5 1.2 83
2020-04-06 11:00:00 11.6 6 Sur 13 Sudeste 0 1007.1 1.9 89
2020-04-06 10:00:00 10.5 6 Sudeste 11 Sur 0 1006.8 2.3 93
2020-04-06 09:00:00 9.5 7 Sudeste 15 Sur 0 1006.3 2.5 95
2020-04-06 08:00:00 9.1 10 Sur 21 Sudeste 0 1005.2 1.8 95
2020-04-06 07:00:00 9.2 7 Sur 9 Sur 0 1004.5 1.4 95
2020-04-06 06:00:00 8.7 3 Sudeste 11 Sur 0 1003.8 0.6 94
2020-04-06 05:00:00 9.6 7 Sur 11 Sur 0 1003.4 0.6 91
2020-04-06 04:00:00 9.9 11 Sur 13 Sur 0 1003.1 0.7 87
2020-04-06 03:00:00 9.9 13 Sudoeste -- -- 0 1003.2 1 88
2020-04-06 02:00:00 10.7 12 Sudoeste 15 Sudoeste 0 1002.8 1.3 85
2020-04-06 01:00:00 11.8 7 Sudoeste 9 Sudoeste 0 1002.4 1.9 81
2020-04-06 00:00:00 12.5 7 Sudoeste 15 Oeste 0 1002.2 2.6 80
2020-04-05 23:00:00 13.4 8 Oeste 15 Oeste 0 1001.5 2.8 78
2020-04-05 22:00:00 13.8 4 Noroeste 9 Noroeste 0 1000.5 2.8 84
2020-04-05 21:00:00 15 3 Oeste 18 Oeste 0 999.6 2.6 80
2020-04-05 20:00:00 15.4 12 Oeste 26 Oeste 0 998.7 1.8 78
2020-04-05 19:00:00 16.9 18 Oeste 42 Sudoeste 0 997.7 1.4 67
2020-04-05 18:00:00 18.1 24 Oeste 42 Sudoeste 0 997 1.5 62
2020-04-05 17:00:00 17 22 Sudoeste 35 Sur 0 996.9 2 76
2020-04-05 16:00:00 15.6 18 Sudoeste 33 Sur 1.1 996.3 1.5 82
2020-04-05 15:00:00 14.9 13 Sudoeste 42 Sur 5.7 995.5 0.6 92
2020-04-05 14:00:00 15.7 28 Sur 48 Sur 2.2 994.9 0.1 86
2020-04-05 13:00:00 15.9 22 Sur 33 Sur 0.4 994.8 -0.2 85
2020-04-05 12:00:00 16.1 21 Sur 35 Sur 0 994.9 0.7 83
2020-04-05 11:00:00 13.4 13 Sur 33 Sur 0.6 994.8 1.5 90
2020-04-05 10:00:00 13.2 13 Sur 37 Sur 1.7 995 1.7 89
2020-04-05 09:00:00 14.2 27 Sur 50 Sur 0.5 994.2 0.6 78
2020-04-05 08:00:00 14.2 28 Sur 45 Sur 0 993.3 -0.2 75
2020-04-05 07:00:00 14.8 26 Sur 48 Sur 0 993.3 -0.5 70
2020-04-05 06:00:00 14.9 30 Sur 52 Sur 0 993.6 -0.8 68
2020-04-05 05:00:00 16.2 33 Sur 54 Sur 0 993.5 -1.3 58
2020-04-05 04:00:00 16.3 23 Sur 55 Sur 0 993.8 -1 55
2020-04-05 03:00:00 16.4 14 Sur 28 Sur 0 994.4 -1 53
2020-04-05 02:00:00 16.6 23 Sur 41 Sur 0 994.8 -1.2 51
2020-04-05 01:00:00 16.8 24 Sur 41 Sur 0 994.8 -1.2 49
2020-04-05 00:00:00 15.3 12 Sudeste 24 Sur 0 995.4 -0.5 58
2020-04-04 23:00:00 15.2 9 Sudeste 13 Sudeste 0 996 0.6 60
2020-04-04 22:00:00 16.2 7 Sudeste 28 Sudoeste 0 996 0.8 55
2020-04-04 21:00:00 17.3 20 Sudoeste 33 Sudoeste 0 995.9 0.5 53
2020-04-04 20:00:00 20.3 22 Sur 39 Sur 0 995.4 -0.1 38
2020-04-04 19:00:00 20.7 29 Sur 42 Sur 0 995.2 -1 35
2020-04-04 18:00:00 21.1 23 Sur 45 Sur 0 995.4 -1.4 36
2020-04-04 17:00:00 22 22 Sur 41 Sur 0 995.5 -1.9 34
2020-04-04 16:00:00 21.4 26 Sur 46 Sur 0 996.2 -1.9 34
2020-04-04 15:00:00 21.2 26 Sur 48 Sudeste 0 996.8 -1.9 33
2020-04-04 14:00:00 21.6 32 Sur 48 Sur 0 997.4 -1.7 34
2020-04-04 13:00:00 20.7 25 Sur 52 Sur 0 998.1 -1.3 37
2020-04-04 12:00:00 18.7 13 Sudeste 24 Sudeste 0 998.7 -0.5 47
2020-04-04 11:00:00 15.9 4 Sudeste 9 Sudeste 0 999.1 0.2 54
2020-04-04 10:00:00 12.9 4 Sudeste 9 Sur 0 999.4 0.4 64
2020-04-04 09:00:00 9 7 Sur 17 Sudeste 0 999.2 -0.2 79
2020-04-04 08:00:00 8.8 11 Sudeste 15 Sudeste 0 998.9 -0.8 81
2020-04-04 07:00:00 6.9 12 Sur 17 Sur 0 999 -1.4 91
2020-04-04 06:00:00 6.3 11 Sur 17 Sur 0 999.4 -1.7 94
2020-04-04 05:00:00 6.5 12 Sur 15 Sur 0 999.7 -2 94
2020-04-04 04:00:00 7.1 9 Sur 15 Sur 0 1000.4 -1.4 92
2020-04-04 03:00:00 7.7 6 Sur 13 Sur 0 1001.1 -1 91
2020-04-04 02:00:00 8.5 9 Sur 13 Sur 0 1001.7 -0.4 88
2020-04-04 01:00:00 8.8 6 Sur 15 Sur 0 1001.8 0 87
2020-04-04 00:00:00 9.6 12 Sur 17 Sur 0 1002.1 0.7 84
2020-04-03 23:00:00 11.5 8 Sur 11 Sur 0 1002.1 0.7 72
2020-04-03 22:00:00 12.8 3 Oeste 8 Oeste 0 1001.8 0.5 63
2020-04-03 21:00:00 14.4 3 Norte 13 Norte 0 1001.4 -0.1 59
2020-04-03 20:00:00 16.2 9 Norte 17 Norte 0 1001.4 -0.4 53
2020-04-03 19:00:00 16.7 12 Norte 24 Norte 0 1001.3 -1 52
2020-04-03 18:00:00 17.5 13 Norte 26 Norte 0 1001.5 -1.4 51
2020-04-03 17:00:00 17.1 14 Norte 22 Nordeste 0 1001.8 -1.4 52
2020-04-03 16:00:00 16.5 12 Norte 21 Norte 0 1002.3 -1.6 54
2020-04-03 15:00:00 16.5 9 Norte 24 Sur 0 1002.9 -1.7 58
2020-04-03 14:00:00 15.6 5 Nordeste 17 Nordeste 0 1003.2 -1.2 59
2020-04-03 13:00:00 15.5 8 Sudeste 17 Sudeste 0 1003.9 -0.8 59
2020-04-03 12:00:00 12.3 5 Sudeste 15 Sur 0 1004.6 -0.4 65
2020-04-03 11:00:00 9.3 7 Sur 11 Sur 0 1004.4 -0.4 76
2020-04-03 10:00:00 4.4 4 Sur 11 Sur 0 1004.7 -0.2 95
2020-04-03 09:00:00 1.5 5 Sur 9 Sur 0 1005 -0.2 95
2020-04-03 08:00:00 2.2 8 Sur 9 Sur 0 1004.8 -0.6 95
2020-04-03 07:00:00 2.5 6 Sudoeste 8 Sudoeste 0 1004.9 -1 94
2020-04-03 06:00:00 4.2 2 Oeste 8 Sur 0 1005.2 -1.4 93
2020-04-03 05:00:00 5 4 Sur 5 Sur 0 1005.4 -1.4 92
2020-04-03 04:00:00 7.2 4 Norte 9 Norte 0 1005.9 -1.4 81
2020-04-03 03:00:00 7.5 4 Norte 9 Nordeste 0 1006.6 -0.9 81
2020-04-03 02:00:00 8.1 5 Norte 15 Norte 0 1006.8 -0.7 81
2020-04-03 01:00:00 8.7 8 Norte 18 Nordeste 0 1007.3 0.1 80
2020-04-03 00:00:00 8.9 9 Nordeste 21 Norte 0 1007.5 0.8 80
2020-04-02 23:00:00 9.6 12 Norte 22 Norte 0 1007.5 1.2 77
2020-04-02 22:00:00 10 11 Nordeste 28 Norte 0 1007.2 1.2 77
2020-04-02 21:00:00 10.8 14 Norte 30 Nordeste 0 1006.7 0.7 74
2020-04-02 20:00:00 11.9 17 Nordeste 32 Norte 0 1006.3 0.3 71
2020-04-02 19:00:00 13.5 18 Nordeste 28 Nordeste 0 1006 -0.1 65
2020-04-02 18:00:00 14.3 15 Norte 28 Norte 0 1006 -0.3 64
2020-04-02 17:00:00 13.6 16 Nordeste 28 Norte 0 1006 -0.6 67
2020-04-02 16:00:00 13.5 10 Norte 22 Nordeste 0 1006.1 -0.7 68
2020-04-02 15:00:00 13.3 10 Este 24 Nordeste 0 1006.3 -0.2 70
2020-04-02 14:00:00 12.1 12 Nordeste 28 Nordeste 0 1006.6 0.7 76
2020-04-02 13:00:00 11.7 13 Nordeste 24 Nordeste 0 1006.8 1.6 80
2020-04-02 12:00:00 11.8 15 Nordeste 28 Nordeste 0 1006.5 1.9 79
2020-04-02 11:00:00 12 16 Nordeste 26 Nordeste 0 1005.9 1.7 77
2020-04-02 10:00:00 11.4 10 Norte 21 Norte 0 1005.2 1.5 80
2020-04-02 09:00:00 11 11 Norte 26 Norte 0 1004.6 1.3 82
2020-04-02 08:00:00 10.9 9 Norte 21 Nordeste 0 1004.2 0.9 85
2020-04-02 07:00:00 10.9 13 Nordeste 21 Norte 0 1003.7 0.3 85
2020-04-02 06:00:00 10.7 11 Norte 22 Norte 0 1003.3 -0.3 86
2020-04-02 05:00:00 10.5 15 Norte 26 Norte 0 1003.3 -0.2 88
2020-04-02 04:00:00 10.6 10 Norte 21 Norte 0 1003.4 0.1 89
2020-04-02 03:00:00 10.7 7 Norte 24 Norte 0 1003.6 0.5 90
2020-04-02 02:00:00 10.8 9 Norte 21 Nordeste 0 1003.5 0.5 89
2020-04-02 01:00:00 11.2 10 Norte 28 Nordeste 0 1003.3 0.9 86
2020-04-02 00:00:00 11.3 11 Norte 24 Norte 0 1003.1 1.5 83
2020-04-01 23:00:00 11.5 10 Norte 22 Norte 0 1003 1.8 83
2020-04-01 22:00:00 11.7 11 Norte -- -- -- 1002.4 1.8 84
2020-04-01 21:00:00 11.9 12 Norte 32 Nordeste 0 1001.6 1.5 83
2020-04-01 20:00:00 12.9 12 Norte 28 Nordeste 0 1001.2 1.1 76
2020-04-01 19:00:00 13.2 13 Nordeste 26 Norte 0 1000.6 0.2 75
2020-04-01 18:00:00 13.7 10 Norte 24 Nordeste 0 1000.1 -0.4 78
2020-04-01 17:00:00 13.2 10 Norte 21 Noroeste 0 1000.1 -0.6 79
2020-04-01 16:00:00 12.6 15 Norte 22 Noroeste 0 1000.4 -0.2 73
2020-04-01 15:00:00 12.9 11 Norte 18 Norte 0 1000.5 0.1 70
2020-04-01 14:00:00 12.4 10 Norte 17 Noroeste 0 1000.7 0.2 76
2020-04-01 13:00:00 12.2 11 Norte 18 Norte 0 1000.6 0.7 76
2020-04-01 12:00:00 13.1 4 Nordeste 9 Nordeste 0 1000.4 1.1 67
2020-04-01 11:00:00 10.8 6 Sur 24 Sur 0 1000.5 1.9 87
2020-04-01 10:00:00 8.8 7 Sudoeste 11 Sur 0 999.9 1.6 95
2020-04-01 09:00:00 7.6 9 Sudoeste 11 Sudoeste 0.2 999.3 1.2 96
2020-04-01 08:00:00 7.5 3 Noroeste 8 Norte 0.7 998.6 0.9 96
2020-04-01 07:00:00 7.5 0 Calma 8 Sudeste 2.3 998.3 1 95
2020-04-01 06:00:00 7.3 4 Sur 9 Sur 2 998.1 1.1 93
2020-04-01 05:00:00 7.7 7 Sur 11 Sur 0.5 997.7 0.9 89
2020-04-01 04:00:00 7.5 8 Sur 11 Sur 0 997.3 0.5 89
2020-04-01 03:00:00 7.5 6 Sur 9 Sur 0 997 0.1 86
2020-04-01 02:00:00 9.2 4 Nordeste 15 Este 0 996.8 0.2 77
2020-04-01 01:00:00 9 10 Nordeste 15 Nordeste 0 996.8 0.2 79
2020-04-01 00:00:00 9.2 5 Este 22 Este 0 996.9 0.8 77
2020-03-31 23:00:00 9.1 6 Este 21 Este 0.2 996.6 0.6 77
2020-03-31 22:00:00 9.6 12 Este 24 Este 0 996.6 0.7 73
2020-03-31 21:00:00 9.6 15 Este -- -- -- 996.1 0 73
2020-03-31 20:00:00 9.8 14 Este 37 Este 0 996 -0.1 71
2020-03-31 19:00:00 9.7 19 Este 42 Este 0 995.9 -0.2 70
2020-03-31 18:00:00 9.6 14 Este 42 Este 0 996.1 -0.2 70
2020-03-31 17:00:00 9.8 25 Este 46 Este 0 996.1 -0.5 66
2020-03-31 16:00:00 10.3 23 Este 48 Este 0 996.1 -0.9 60
2020-03-31 15:00:00 10.1 32 Este 55 Este 0 996.3 -1.1 55
2020-03-31 14:00:00 9.5 28 Este 54 Este 0 996.6 -1.5 51
2020-03-31 13:00:00 8.9 26 Este 48 Este 0 997 -1.8 53
2020-03-31 12:00:00 8.2 24 Este 41 Este 0 997.4 -2 59
2020-03-31 11:00:00 7.2 14 Nordeste 22 Este 0 998.1 -1.8 69
2020-03-31 10:00:00 5.4 5 Norte 17 Norte 0 998.8 -1.1 79
2020-03-31 09:00:00 4.6 8 Norte 24 Nordeste 0 999.4 -1.3 83
2020-03-31 08:00:00 4.6 6 Nordeste 18 Nordeste 0 999.9 -1.7 81
2020-03-31 07:00:00 4.7 14 Este 41 Nordeste 0 999.9 -2.2 79
2020-03-31 06:00:00 4.7 12 Este 32 Nordeste 0 1000.7 -2.6 72
2020-03-31 05:00:00 6 18 Nordeste 35 Nordeste 0 1001.6 -2.5 64
2020-03-31 04:00:00 6.3 16 Nordeste 30 Nordeste 0 1002.1 -2.6 61
2020-03-31 03:00:00 6.2 12 Este 24 Nordeste 0 1003.3 -2.2 64
2020-03-31 02:00:00 6.5 12 Este 32 Nordeste 0 1004.1 -2.1 63
2020-03-31 01:00:00 6.3 18 Nordeste 30 Nordeste 0 1004.7 -1.7 63
2020-03-31 00:00:00 5.9 12 Nordeste 26 Este 0 1005.5 -0.7 69
2020-03-30 23:00:00 5.1 13 Este 35 Nordeste 0 1006.2 0.8 76
2020-03-30 22:00:00 5.1 23 Nordeste 41 Nordeste 0 1006.4 1 82
2020-03-30 21:00:00 5.7 30 Este 58 Este 0 1006.2 0.8 74
2020-03-30 20:00:00 7.7 37 Este 61 Nordeste 0 1005.4 -0.4 52
2020-03-30 19:00:00 8.3 27 Este 50 Este 0 1005.4 -1.3 50
2020-03-30 18:00:00 9.3 30 Este 59 Nordeste 0 1005.4 -1.8 48
2020-03-30 17:00:00 9.1 30 Este 55 Este 0 1005.8 -2 47
2020-03-30 16:00:00 8.5 29 Este 59 Nordeste 0 1006.7 -1.8 49
2020-03-30 15:00:00 9.2 36 Este 63 Este 0 1007.2 -1.5 47
2020-03-30 14:00:00 10.6 31 Este 61 Este 0 1007.8 -0.7 43
2020-03-30 13:00:00 8.2 33 Este 59 Este 0 1008.5 -0.3 51
2020-03-30 12:00:00 8.6 39 Este 59 Este 0 1008.7 0.3 53
2020-03-30 11:00:00 8.7 28 Este 48 Este 0 1008.5 0.5 54
2020-03-30 10:00:00 8 29 Este 55 Este 0 1008.8 0.8 56
2020-03-30 09:00:00 7.6 26 Este 45 Nordeste 0 1008.4 0.4 61
2020-03-30 08:00:00 7.8 23 Nordeste 42 Nordeste 0 1008 -0.8 61
2020-03-30 07:00:00 8.2 19 Este 45 Este 0 1008 -0.9 63
2020-03-30 06:00:00 8.2 21 Este 37 Este 0 1008 -1.1 60
2020-03-30 05:00:00 8.3 22 Este 55 Este 0 1008.8 -0.7 61
2020-03-30 04:00:00 9 23 Este 48 Este 0 1008.9 -0.8 65
2020-03-30 03:00:00 9.2 19 Este 39 Este 0 1009.1 -0.4 67
2020-03-30 02:00:00 9.4 20 Este 46 Este 0 1009.5 0.1 66
2020-03-30 01:00:00 9.8 21 Este 54 Nordeste 0 1009.7 0.9 65
2020-03-30 00:00:00 10.2 22 Este 54 Este 0 1009.5 1.3 66
2020-03-29 23:00:00 10.8 24 Este 54 Este 0 1009.4 1.6 66
2020-03-29 22:00:00 11.4 18 Este 42 Este 0 1008.8 1.7 68
2020-03-29 21:00:00 12.3 19 Este 50 Este 0 1008.2 1.4 64
2020-03-29 20:00:00 13.5 26 Este 42 Este 0 1007.8 1 56
2020-03-29 19:00:00 15.1 28 Este 45 Este 0 1007.1 0 44
2020-03-29 18:00:00 16 27 Nordeste 42 Nordeste 0 1006.8 -0.7 47
2020-03-29 17:00:00 16.4 29 Nordeste 42 Nordeste 0 1006.8 -1.3 51
2020-03-29 16:00:00 16.5 26 Nordeste 42 Nordeste 0 1007.1 -1.6 53
2020-03-29 15:00:00 16.2 19 Nordeste 30 Norte 0 1007.5 -1.5 56
2020-03-29 14:00:00 15.2 11 Norte 21 Norte 0 1008.1 -0.9 59
2020-03-29 13:00:00 13.8 10 Norte 18 Noroeste 0 1008.7 -0.2 65
2020-03-29 12:00:00 11 5 Norte 9 Noroeste 0 1009 0.3 76
2020-03-29 11:00:00 9 3 Noroeste 8 Sur 0 1009 0.7 81
2020-03-29 10:00:00 5.4 5 Sur 9 Sur 0 1008.9 0.8 94
2020-03-29 09:00:00 3 6 Sur 11 Sur 0 1008.7 0.7 96
2020-03-29 08:00:00 3.3 6 Sur 11 Sur 0 1008.3 0.1 96
2020-03-29 07:00:00 3.6 8 Sur 11 Sur 0 1008.1 -0.2 95
2020-03-29 06:00:00 4.5 8 Sur 9 Sur 0 1008 -0.5 94
2020-03-29 05:00:00 5 4 Sur 8 Sur 0 1008.2 -0.5 91
2020-03-29 03:00:00 7.3 0 Calma 4 Sur 0 1008.5 0.1 87
2020-03-29 01:00:00 8.5 0 Calma 8 Este 0 1008.7 0.5 80
2020-03-29 00:00:00 9.9 4 Este 9 Este 0 1008.7 0.9 75
2020-03-28 23:00:00 10.6 5 Este 13 Nordeste 0 1008.4 1.5 73
2020-03-28 22:00:00 11.6 8 Norte 13 Norte 0 1008.2 2 71
2020-03-28 21:00:00 12.4 6 Noroeste 13 Noroeste 0 1007.8 2.3 71
2020-03-28 20:00:00 14.1 8 Norte 22 Norte 0 1006.9 1.5 63
2020-03-28 19:00:00 16.6 10 Norte 21 Norte 0 1006.2 0.7 42
2020-03-28 18:00:00 17 11 Norte 30 Norte 0 1005.5 -0.3 43
2020-03-28 17:00:00 17.6 17 Norte 30 Norte 0 1005.4 -0.5 28
2020-03-28 16:00:00 16.9 17 Norte 28 Nordeste 0 1005.5 -0.6 39
2020-03-28 15:00:00 16.8 16 Norte 28 Noroeste 0 1005.8 -0.5 38
2020-03-28 14:00:00 16.9 14 Norte 24 Norte 0 1005.9 -0.5 44
2020-03-28 13:00:00 18.6 6 Este 17 Sur 0 1006.1 0.1 34
2020-03-28 12:00:00 16.8 7 Sur 13 Sur 0 1006.3 0.9 41
2020-03-28 11:00:00 14.6 8 Sur 13 Sudeste 0 1006.4 1.6 49
2020-03-28 10:00:00 10.1 11 Sur 15 Sur 0 1006 1.7 64
2020-03-28 09:00:00 6.2 11 Sur 13 Sur 0 1005.4 1.6 80
2020-03-28 08:00:00 3.9 10 Sur 13 Sur 0 1004.8 1.2 90
2020-03-28 07:00:00 3 9 Sur 15 Sur 0 1004.3 1 93
2020-03-28 06:00:00 3.2 9 Sur 13 Sur 0 1003.8 0.4 93
2020-03-28 05:00:00 3.4 10 Sur 13 Sur 0 1003.6 0.3 92
2020-03-28 04:00:00 4.2 12 Sur 15 Sur 0 1003.3 0 91
2020-03-28 03:00:00 4.5 8 Sur 13 Sur 0 1003.4 0.2 88
2020-03-28 02:00:00 5.8 9 Sur 13 Sur 0 1003.3 0.4 83
2020-03-28 01:00:00 7.5 7 Sur 13 Sur 0 1003.3 0.7 75
2020-03-28 00:00:00 7.7 12 Sur 22 Sur 0 1003.2 1.1 73
2020-03-27 23:00:00 8.7 11 Sur 13 Sur 0 1002.9 2 69
2020-03-27 22:00:00 9.9 7 Este 13 Este 0 1002.6 2.7 63
2020-03-27 21:00:00 10.6 5 Este 21 Este 0 1002.1 2.7 60
2020-03-27 20:00:00 12 10 Este 21 Este 0 1000.9 1.9 55
2020-03-27 19:00:00 13.3 13 Nordeste 35 Este 0 999.9 0.8 52
2020-03-27 18:00:00 13.7 16 Nordeste 39 Nordeste 0 999.4 -0.2 51
2020-03-27 17:00:00 14.6 19 Norte 35 Norte 0 999 -1.2 48
2020-03-27 16:00:00 15.2 16 Norte 35 Norte 0 999.1 -1.7 47
2020-03-27 15:00:00 15.1 14 Norte 30 Norte 0 999.6 -1.9 41
2020-03-27 14:00:00 15.3 11 Sudeste 22 Sudeste 0 1000.2 -1.6 31
2020-03-27 13:00:00 14.3 15 Sudeste 30 Este 0 1000.8 -1 35
2020-03-27 12:00:00 13.1 16 Sur 33 Este 0 1001.5 -0.2 39
2020-03-27 11:00:00 11.8 19 Este 32 Sudeste 0 1001.8 0.4 44
2020-03-27 10:00:00 9.6 8 Este 15 Este 0 1001.8 0.8 55
2020-03-27 09:00:00 7.4 4 Este 13 Sudoeste 0 1001.7 0.6 68
2020-03-27 08:00:00 5.9 5 Este 17 Norte 0 1001.4 0.4 70
2020-03-27 07:00:00 5.9 5 Norte 11 Nordeste 0 1001 -0.1 71
2020-03-27 06:00:00 6 4 Noroeste 11 Norte 0 1001.1 -0.2 74
2020-03-27 05:00:00 6.9 6 Nordeste 13 Nordeste 0 1001 -0.5 74
2020-03-27 04:00:00 7.3 8 Nordeste 17 Nordeste 0 1001.1 -0.8 74
2020-03-27 03:00:00 7.7 8 Nordeste 17 Nordeste 0 1001.3 -0.7 76
2020-03-27 02:00:00 8.3 6 Norte 15 Nordeste 0 1001.5 -1 75
2020-03-27 01:00:00 8 5 Norte 17 Este 0 1001.9 -0.8 74
2020-03-27 00:00:00 8.3 5 Nordeste 18 Norte 0 1002 -0.6 71
2020-03-26 23:00:00 8.7 9 Nordeste 15 Norte 0 1002.5 0.6 69
2020-03-26 22:00:00 9 6 Nordeste 33 Este 0 1002.7 1.3 67
2020-03-26 21:00:00 9.8 18 Nordeste 30 Nordeste 0 1002.6 1.6 64
2020-03-26 20:00:00 10.9 13 Norte 30 Norte 0 1001.9 0.7 57
2020-03-26 19:00:00 12.8 17 Norte 37 Norte 0 1001.4 -0.2 52
2020-03-26 18:00:00 13.4 15 Norte 41 Norte 0 1001 -1.1 58
2020-03-26 17:00:00 13 20 Norte 39 Norte 0 1001.2 -1.6 58
2020-03-26 16:00:00 12.6 23 Norte 39 Norte 0 1001.6 -1.9 61
2020-03-26 15:00:00 12.7 23 Norte 41 Norte 0 1002.1 -1.7 61
2020-03-26 14:00:00 12.7 19 Norte 30 Norte 0 1002.8 -1.1 63
2020-03-26 13:00:00 12.5 15 Norte 28 Noroeste 0 1003.5 -0.7 64
2020-03-26 12:00:00 11.8 12 Norte 22 Norte 0 1003.8 -0.4 67
2020-03-26 11:00:00 10.5 6 Norte 13 Norte 0 1003.9 -0.4 76
2020-03-26 10:00:00 9.5 4 Sudoeste 11 Sur 0 1004.2 0.4 85
2020-03-26 09:00:00 8.3 3 Sur 9 Sudeste 0 1004.2 0.4 91
2020-03-26 08:00:00 6.6 6 Sur 9 Sur 0 1004.3 0.6 94
2020-03-26 07:00:00 7.4 5 Sudeste 9 Sudeste 0 1003.8 -0.2 96
2020-03-26 06:00:00 7.9 4 Sur 8 Sur 0 1003.8 -0.4 96
2020-03-26 05:00:00 8.4 4 Sudeste 8 Sur 0 1003.7 -0.8 97
2020-03-26 04:00:00 8.6 6 Sur 9 Sur 0 1004 -0.6 95
2020-03-26 03:00:00 8.8 3 Sur 5 Sudeste 0 1004.2 -0.6 93
2020-03-26 02:00:00 9.6 4 Sur 5 Sur 0 1004.5 -0.5 91
2020-03-26 01:00:00 10.4 5 Oeste 8 Oeste 0 1004.6 -0.4 90
2020-03-26 00:00:00 10.7 2 Noroeste 8 Norte 0 1004.8 -0.2 91
2020-03-25 23:00:00 11.6 3 Norte 9 Nordeste 0 1005 0.2 89
2020-03-25 22:00:00 11.8 0 Calma 9 Este 0 1005 0.3 85
2020-03-25 21:00:00 11.8 3 Noroeste 9 Oeste 0 1005 0.4 85
2020-03-25 20:00:00 11.8 4 Noroeste 15 Noroeste 0 1004.8 0.5 84
2020-03-25 19:00:00 12 8 Noroeste 26 Noroeste 0 1004.7 0.3 83
2020-03-25 18:00:00 12.3 13 Noroeste 24 Noroeste 0 1004.6 0.2 83
2020-03-25 17:00:00 13.4 14 Noroeste 28 Norte 0 1004.3 -0.2 80
2020-03-25 16:00:00 14.1 20 Norte 32 Norte 0 1004.4 -0.5 77
2020-03-25 15:00:00 15.6 13 Norte 26 Norte 0 1004.4 -0.6 74
2020-03-25 14:00:00 15.3 15 Norte 24 Norte 0 1004.5 -0.4 74
2020-03-25 13:00:00 14.1 14 Nordeste 21 Nordeste 0 1004.9 0.2 81
2020-03-25 12:00:00 13.4 12 Nordeste 18 Nordeste 0 1005 0.6 85
2020-03-25 11:00:00 12.9 5 Nordeste 9 Nordeste 0 1004.9 1 85
2020-03-25 10:00:00 11.1 3 Sudeste 5 Sudeste 0 1004.7 0.9 93
2020-03-25 09:00:00 7.7 0 Calma 9 Sur 0 1004.4 0.7 95
2020-03-25 08:00:00 6.4 9 Sur 11 Sur 0 1003.9 0.7 97
2020-03-25 07:00:00 6.3 10 Sur 13 Sur 0 1003.8 0.4 97
2020-03-25 06:00:00 6.6 9 Sur 11 Sur 0 1003.7 0.2 96
2020-03-25 05:00:00 7.2 9 Sur 15 Sur 0 1003.2 -0.4 96
2020-03-25 04:00:00 7.7 8 Sur 13 Sur 0 1003.4 -0.4 96
2020-03-25 03:00:00 8.4 12 Sur 15 Sur 0 1003.5 -0.3 95
2020-03-25 02:00:00 9.5 8 Sur 11 Sur 0 1003.6 -0.2 94
2020-03-25 01:00:00 10.7 4 Sur 8 Sudoeste 0 1003.8 0.4 92
2020-03-25 00:00:00 11.3 3 Sur 5 Sur 0 1003.8 0.5 89
2020-03-24 23:00:00 12.5 4 Sur 5 Sur 0 1003.8 0.8 84
2020-03-24 22:00:00 13.2 3 Noroeste 8 Noroeste 0 1003.4 0.6 82
2020-03-24 21:00:00 14.8 3 Sur 9 Noroeste 0 1003.3 0.7 75
2020-03-24 20:00:00 16.6 6 Noroeste 15 Norte 0 1003 0.4 67
2020-03-24 19:00:00 17.9 8 Norte 15 Norte 0 1002.8 -0.1 62
2020-03-24 18:00:00 19.1 10 Norte 21 Noroeste 0 1002.6 -0.8 51
2020-03-24 17:00:00 19.3 11 Norte 21 Norte 0 1002.6 -1.3 50
2020-03-24 16:00:00 18.2 12 Norte 22 Norte 0 1002.9 -1.4 59
2020-03-24 15:00:00 17.8 13 Norte 24 Norte 0 1003.4 -1.2 62
2020-03-24 14:00:00 17.5 13 Norte 18 Nordeste 0 1003.9 -0.8 60
2020-03-24 13:00:00 17.3 10 Norte 15 Norte 0 1004.3 -0.4 62
2020-03-24 12:00:00 16 8 Nordeste 13 Nordeste 0 1004.6 0.2 69
2020-03-24 11:00:00 15 2 Este 9 Este 0 1004.7 0.2 68
2020-03-24 10:00:00 10.9 6 Sur 15 Sur 0 1004.7 0.6 85
2020-03-24 09:00:00 7.1 13 Sur 21 Sur 0 1004.4 0.4 96
2020-03-24 08:00:00 5.8 9 Sur 13 Sur 0 1004.5 0.4 97
2020-03-24 07:00:00 6.2 8 Sur 13 Sur 0 1004.1 -0.3 97
2020-03-24 06:00:00 6.9 6 Sur 11 Sur 0 1004 -0.7 96
2020-03-24 05:00:00 7.4 5 Sur 8 Sur 0 1004.1 -1 94
2020-03-24 04:00:00 7.9 3 Noroeste 9 Sur 0 1004.4 -1.1 92
2020-03-24 03:00:00 8.7 6 Sur 9 Sudoeste 0 1004.7 -1.1 89
2020-03-24 02:00:00 9.3 8 Sudoeste 13 Noroeste 0 1005.1 -0.8 86
2020-03-24 01:00:00 10.1 6 Norte 17 Norte 0 1005.5 -0.6 82
2020-03-24 00:00:00 10 5 Norte 22 Norte 0 1005.8 0 81
2020-03-23 23:00:00 9.9 12 Norte 26 Norte 0 1005.9 0.3 81
2020-03-23 22:00:00 9.9 14 Nordeste 24 Nordeste 0 1006.1 0.7 81
2020-03-23 21:00:00 9.9 14 Nordeste 30 Nordeste 0 1005.8 0.7 83
2020-03-23 20:00:00 9.9 11 Norte 26 Nordeste 0 1005.6 0.4 82
2020-03-23 19:00:00 10.5 15 Norte 33 Nordeste 0 1005.4 -0.1 78
2020-03-23 18:00:00 11 16 Nordeste 28 Nordeste 0 1005.1 -0.4 76
2020-03-23 17:00:00 11 17 Nordeste 35 Nordeste 0 1005.2 -0.9 78
2020-03-23 16:00:00 11.3 14 Nordeste 35 Nordeste 0 1005.5 -0.9 79
2020-03-23 15:00:00 12.2 14 Nordeste 32 Nordeste 0 1005.5 -1.1 76
2020-03-23 14:00:00 12.5 18 Nordeste 35 Nordeste 0 1006.1 -0.5 75
2020-03-23 13:00:00 12.3 19 Nordeste 35 Nordeste 0 1006.4 -0.4 78
2020-03-23 12:00:00 11.8 13 Norte 30 Norte 0 1006.6 0.5 81
2020-03-23 11:00:00 11.4 13 Nordeste 28 Norte 0 1006.6 1.1 84
2020-03-23 10:00:00 11.1 15 Nordeste 30 Nordeste 0 1006.8 1.8 84
2020-03-23 09:00:00 11.2 15 Norte 30 Nordeste 0 1006.1 1.3 85
2020-03-23 08:00:00 11 10 Norte 22 Nordeste 0 1005.5 1 87
2020-03-23 07:00:00 11.2 12 Norte 24 Norte 0 1005 0.7 85
2020-03-23 06:00:00 11.3 12 Norte 22 Norte 0 1004.8 0.5 85
2020-03-23 05:00:00 11.6 14 Nordeste 22 Nordeste 0 1004.5 0 83
2020-03-23 04:00:00 11.7 12 Norte 21 Nordeste 0 1004.3 -0.4 81
2020-03-23 03:00:00 11.8 11 Nordeste 24 Norte 0 1004.3 -0.6 82
2020-03-23 02:00:00 11.9 11 Norte 22 Nordeste 0 1004.5 -0.2 83
2020-03-23 01:00:00 11.9 10 Nordeste 22 Nordeste 0 1004.7 0.4 83
2020-03-23 00:00:00 12.1 11 Nordeste 22 Nordeste 0 1004.9 1.1 83
2020-03-22 23:00:00 12.5 12 Nordeste 22 Norte 0 1004.7 1.7 80
2020-03-22 22:00:00 12.6 14 Norte 22 Norte 0 1004.3 2 80
2020-03-22 21:00:00 12.4 9 Norte 21 Norte 0 1003.8 1.9 80
2020-03-22 20:00:00 12.9 11 Norte 28 Norte 0 1003 1.1 78
2020-03-22 19:00:00 14 13 Norte 32 Norte 0 1002.3 0.5 73
2020-03-22 18:00:00 14.1 13 Norte 28 Noroeste 0 1001.9 -0.2 81
2020-03-22 17:00:00 14 18 Norte 32 Norte 0 1001.9 -0.5 79
2020-03-22 16:00:00 14.2 18 Norte 33 Norte 0 1001.8 -0.7 78
2020-03-22 15:00:00 14.1 16 Norte 28 Norte 0 1002.1 -0.6 75
2020-03-22 14:00:00 13.9 15 Norte 26 Norte 0 1002.4 -0.4 77
2020-03-22 13:00:00 13.9 9 Norte 15 Norte 0 1002.5 0 73
2020-03-22 12:00:00 13.3 3 Nordeste 11 Sudeste 0 1002.7 0.6 74
2020-03-22 11:00:00 12.6 4 Este 9 Este 0 1002.8 1.3 77
2020-03-22 10:00:00 11.9 8 Este 13 Este 0 1002.5 1.5 85
2020-03-22 09:00:00 11.5 5 Norte 11 Nordeste 0 1002.1 1.3 86
2020-03-22 08:00:00 11.4 4 Nordeste 11 Noroeste 0 1001.5 1 87
2020-03-22 07:00:00 11.3 6 Norte 11 Norte 0 1001 0.5 87
2020-03-22 06:00:00 11.3 4 Nordeste 13 Norte 0 1000.8 0.3 86
2020-03-22 05:00:00 11.5 9 Norte 15 Norte 0 1000.5 -0.1 83
2020-03-22 04:00:00 11.3 6 Norte 13 Norte 0 1000.5 -0.1 86
2020-03-22 03:00:00 11.4 8 Norte 13 Noroeste 0 1000.5 -0.2 87
2020-03-22 02:00:00 11.5 8 Norte 18 Norte 0 1000.6 0.3 84
2020-03-22 01:00:00 11.7 7 Norte 13 Norte 0 1000.6 0.2 86
2020-03-22 00:00:00 11.8 5 Norte 9 Norte 0 1000.7 0.6 87
2020-03-21 23:00:00 11.7 4 Norte 9 Nordeste 0 1000.3 0.7 87
2020-03-21 22:00:00 11.7 5 Nordeste 11 Norte 0 1000.4 1.9 87
2020-03-21 21:00:00 11.7 8 Norte 18 Norte 0 1000.1 1.9 88
2020-03-21 20:00:00 11.6 10 Norte 21 Norte 0 999.6 1.8 89
2020-03-21 19:00:00 11.8 12 Norte 22 Norte 0 998.5 0.5 90
2020-03-21 18:00:00 11.8 12 Norte 26 Norte 0.2 998.2 0.3 92
2020-03-21 17:00:00 12.4 12 Norte 22 Noroeste 0 997.8 -0.3 88
2020-03-21 16:00:00 13 14 Noroeste 24 Noroeste 0 998 -0.2 86
2020-03-21 15:00:00 13.7 12 Norte 24 Norte 0 997.9 -0.4 84
2020-03-21 14:00:00 14.7 13 Norte 24 Nordeste 0 998.1 -0.4 81
2020-03-21 13:00:00 14.5 10 Norte 17 Norte 0 998.2 -0.2 82
2020-03-21 12:00:00 14.2 2 Nordeste 9 Norte 0 998.3 0 83
2020-03-21 11:00:00 12.6 4 Norte 9 Norte 0 998.5 0.5 90
2020-03-21 10:00:00 11.8 2 Nordeste 8 Sudeste 0 998.4 0.5 95
2020-03-21 09:00:00 11.7 4 Sudeste 5 Sudeste 0 998.3 0.8 96
2020-03-21 08:00:00 11.5 3 Norte 11 Norte 0 998 0.1 97
2020-03-21 07:00:00 11.6 4 Norte 5 Norte 0 997.9 -0.7 97
2020-03-21 06:00:00 11.5 4 Norte 9 Noroeste 0 997.5 -1.4 97
2020-03-21 05:00:00 11.4 0 Calma 8 Norte 0 997.9 -1.3 97
2020-03-21 04:00:00 11.5 2 Sur 5 Sudeste 0 998.6 -1.4 97
2020-03-21 03:00:00 11.6 0 Calma 5 Sudeste 0 998.9 -1.6 96
2020-03-21 02:00:00 11.7 2 Noroeste 8 Oeste 0 999.2 -1.3 96
2020-03-21 01:00:00 11.9 0 Calma 5 Noroeste 0 1000 -0.5 96
2020-03-21 00:00:00 11.8 0 Calma 5 Norte 0 1000.5 0.1 96
2020-03-20 23:00:00 11.9 3 Noroeste 4 Oeste 0 1000.5 0.1 96
2020-03-20 22:00:00 11.9 0 Calma 5 Sudoeste 0 1000.5 0 95
2020-03-20 21:00:00 12 6 Sur 13 Noroeste 0.1 1000.4 0.5 95
2020-03-20 20:00:00 11.9 4 Oeste 8 Oeste 3.1 1000.4 0.8 95
2020-03-20 19:00:00 12.1 6 Norte 17 Noroeste 4.7 1000.5 0.9 96
2020-03-20 18:00:00 12.3 12 Norte 24 Norte 0.6 999.9 -0.2 93
2020-03-20 17:00:00 13.1 12 Norte 21 Norte 2.8 999.6 -1 93
2020-03-20 16:00:00 15 9 Norte 13 Norte 0 999.6 -1.3 84
2020-03-20 15:00:00 15.1 7 Norte 11 Norte 0 1000.1 -1.3 85
2020-03-20 14:00:00 15.2 3 Nordeste 9 Nordeste 0 1000.6 -0.9 86
2020-03-20 13:00:00 14.1 2 Este 9 Sudeste 0 1000.9 -0.7 89
2020-03-20 12:00:00 13 0 Calma 5 Sur 0.8 1001.4 0.1 95
2020-03-20 11:00:00 12.3 5 Sur 9 Sur 1.1 1001.5 0.4 96
2020-03-20 10:00:00 12 8 Sur 13 Sur 1.7 1001.6 1 97
2020-03-20 09:00:00 11.9 6 Sur 21 Sudeste 3.5 1001.3 1 97
2020-03-20 08:00:00 11.9 8 Sur 13 Este 2.3 1001.1 0.8 96
2020-03-20 07:00:00 11.9 9 Sudeste 15 Sudeste 2.2 1000.6 0 97
2020-03-20 06:00:00 11.9 5 Sudeste 11 Sur 0.5 1000.3 -1 97
2020-03-20 05:00:00 11.8 7 Sudeste 15 Sudeste 0.8 1000.3 -1.3 97
2020-03-20 04:00:00 11.7 4 Sudeste 8 Sudeste 0.9 1000.6 -1.2 97
2020-03-20 03:00:00 11.6 4 Norte 11 Sudeste 0.8 1001.3 -1.1 96
2020-03-20 02:00:00 11.9 8 Sudeste 11 Sudeste 0.7 1001.6 -1.5 96
2020-03-20 01:00:00 11.8 6 Sur 15 Este 1 1001.8 -1.5 95
2020-03-20 00:00:00 11.3 7 Sur 11 Sur 1.1 1002.4 -1.3 95
2020-03-19 23:00:00 11.5 8 Sur 15 Sur 0 1003.1 -0.8 94
2020-03-19 22:00:00 11.7 5 Sudeste 8 Sudeste 0 1003.3 -0.2 91
2020-03-19 21:00:00 11.9 4 Noroeste 13 Noroeste 0 1003.7 0 90
2020-03-19 20:00:00 11.9 9 Norte 21 Norte 0 1003.9 -0.2 90
2020-03-19 19:00:00 12.2 8 Noroeste 17 Noroeste 0 1003.5 -0.8 88
2020-03-19 18:00:00 12.2 11 Noroeste 17 Norte 0 1003.7 -0.9 86
2020-03-19 17:00:00 12.3 8 Norte 24 Noroeste 0 1004.1 -1.3 86
2020-03-19 16:00:00 13.3 16 Norte 26 Noroeste 0 1004.3 -1.8 82
2020-03-19 15:00:00 14.2 12 Norte 21 Nordeste 0 1004.6 -2.1 80
2020-03-19 14:00:00 13 10 Nordeste 17 Nordeste 0 1005.4 -1.6 86
2020-03-19 13:00:00 12.4 6 Nordeste 11 Norte 0 1006.1 -1.1 88
2020-03-19 12:00:00 11.7 0 Calma 9 Este 0 1006.7 0 93
2020-03-19 11:00:00 10.8 4 Este 5 Este 0 1007 0.1 96
2020-03-19 10:00:00 9.9 2 Oeste 9 Oeste 0 1007.2 0 97
2020-03-19 09:00:00 9.8 4 Sudoeste 13 Sur 0 1006.7 -0.6 98
2020-03-19 08:00:00 9.7 8 Sur 11 Sur 0 1006.9 -0.6 97
2020-03-19 07:00:00 10 5 Sudoeste 8 Sur 0 1007.2 -0.8 97
2020-03-19 06:00:00 9.6 0 Calma 5 Sudoeste 0 1007.3 -1.3 97
2020-03-19 05:00:00 9 6 Sur 9 Sur 0 1007.5 -1.7 97
2020-03-19 04:00:00 8.6 0 Calma 9 Sur 0 1008 -1.7 97
2020-03-19 03:00:00 8.4 7 Sur 11 Sur 0 1008.6 -1.4 96
2020-03-19 02:00:00 8.8 6 Sur 8 Sur 0 1009.2 -1 95
2020-03-19 01:00:00 9.6 7 Sur 9 Sur 0 1009.7 -0.5 94
2020-03-19 00:00:00 10.2 0 Calma 5 Sur 0 1010 -0.3 94
2020-03-18 23:00:00 10.4 2 Norte 8 Sur 0 1010.2 0.1 92
2020-03-18 22:00:00 11.1 6 Sur 9 Sur 0 1010.2 0.5 91
2020-03-18 21:00:00 11.7 4 Sudoeste 13 Sur 0 1010.3 0.7 89
2020-03-18 20:00:00 13.1 3 Oeste 18 Noroeste 0 1010.1 0.3 81
2020-03-18 19:00:00 15.7 8 Noroeste 18 Norte 0 1009.7 -0.6 71
2020-03-18 18:00:00 17.2 13 Noroeste 21 Noroeste 0 1009.6 -1.4 65
2020-03-18 17:00:00 17.9 12 Noroeste 26 Norte 0 1009.8 -1.9 59
2020-03-18 16:00:00 18 16 Noroeste 26 Noroeste 0 1010.3 -1.9 56
2020-03-18 15:00:00 17.9 13 Norte 22 Norte 0 1011 -1.6 56
2020-03-18 14:00:00 16.8 14 Norte 22 Norte 0 1011.7 -1.3 64
2020-03-18 13:00:00 16.1 14 Norte 21 Norte 0 1012.2 -0.9 66
2020-03-18 12:00:00 17.5 3 Nordeste 13 Sudeste 0 1012.6 -0.5 62
2020-03-18 11:00:00 14 9 Sur 17 Sur 0 1013 -0.2 72
2020-03-18 10:00:00 9.7 9 Sur 15 Sur 0 1013.1 -0.2 86
2020-03-18 09:00:00 6.4 8 Sur 13 Sur 0 1013.1 -0.2 97
2020-03-18 08:00:00 4.8 12 Sur 15 Sur 0 1013.2 0.2 97
2020-03-18 07:00:00 5.4 12 Sur 13 Sur 0 1013.3 0 96
2020-03-18 06:00:00 5.9 5 Sudoeste 8 Sur 0 1013.3 -0.3 95
2020-03-18 05:00:00 6.5 4 Sudoeste 8 Sudoeste 0 1013 -0.9 95
2020-03-18 04:00:00 7 7 Sur 13 Sudoeste 0 1013.3 -1.1 95
2020-03-18 03:00:00 7.5 0 Calma 11 Sur 0 1013.6 -1 94
2020-03-18 02:00:00 8.2 5 Sur 9 Sur 0 1013.9 -0.8 90
2020-03-18 01:00:00 9.3 3 Sudoeste 5 Sudoeste 0 1014.4 0 86
2020-03-18 00:00:00 9.7 4 Noroeste 5 Noroeste 0 1014.6 0.8 85
2020-03-17 23:00:00 10.7 3 Norte 11 Sudeste 0 1014.7 1.4 81
2020-03-17 22:00:00 11.8 5 Sudeste 8 Sudeste 0 1014.4 1.4 77
2020-03-17 21:00:00 13.4 6 Este 9 Este 0 1013.8 0.8 71
2020-03-17 20:00:00 14.3 7 Nordeste 15 Nordeste 0 1013.3 0.4 68
2020-03-17 19:00:00 16.3 10 Nordeste 17 Nordeste 0 1013 0 60
2020-03-17 18:00:00 17.2 10 Nordeste 18 Norte 0 1013 -0.4 58
2020-03-17 17:00:00 17.7 13 Nordeste 21 Norte 0 1012.9 -1.2 58
2020-03-17 16:00:00 17.5 13 Norte 22 Norte 0 1013 -1.7 57
2020-03-17 15:00:00 16.9 13 Norte 30 Norte 0 1013.4 -1.7 58
2020-03-17 14:00:00 15.9 14 Norte 26 Norte 0 1014.1 -1.4 60
2020-03-17 13:00:00 15.2 9 Nordeste 22 Norte 0 1014.7 -0.6 59
2020-03-17 12:00:00 13.4 13 Norte 22 Norte 0 1015.1 -0.2 62
2020-03-17 11:00:00 11.6 12 Norte 21 Noroeste 0 1015.5 0.7 65
2020-03-17 10:00:00 10.5 10 Nordeste 17 Norte 0 1015.3 0.6 69
2020-03-17 09:00:00 9.1 9 Nordeste 18 Nordeste 0 1015.3 0.9 74
2020-03-17 08:00:00 8.3 8 Nordeste 18 Nordeste 0 1014.8 0.6 75
2020-03-17 07:00:00 8.5 11 Nordeste 22 Norte 0 1014.7 0.3 74
2020-03-17 06:00:00 8.7 10 Norte 21 Norte 0 1014.4 -0.2 72
2020-03-17 05:00:00 8.4 10 Norte 17 Norte 0 1014.2 -0.5 74
2020-03-17 04:00:00 8.3 8 Norte 18 Nordeste 0 1014.4 -0.6 74
2020-03-17 03:00:00 8.8 10 Norte 22 Nordeste 0 1014.6 -0.3 73
2020-03-17 02:00:00 9.2 14 Nordeste 24 Nordeste 0 1014.7 -0.6 72
2020-03-17 01:00:00 9.3 10 Nordeste 26 Norte 0 1015 0.1 71
2020-03-17 00:00:00 9.5 12 Norte 24 Nordeste 0 1014.9 0.4 72
2020-03-16 23:00:00 9.5 11 Nordeste 17 Nordeste 0 1015.3 1.6 72
2020-03-16 22:00:00 9.4 11 Nordeste 28 Nordeste 0 1014.9 1.6 71
2020-03-16 21:00:00 9.3 17 Nordeste 32 Norte 0 1014.5 2 73
2020-03-16 20:00:00 9.8 20 Nordeste 33 Norte 0 1013.7 1.4 74
2020-03-16 19:00:00 10.1 21 Norte 42 Nordeste 0 1013.3 1 73
2020-03-16 18:00:00 11.5 21 Nordeste 45 Norte 0 1012.5 0.5 64
2020-03-16 17:00:00 11.2 20 Norte 45 Nordeste 0 1012.3 0 67
2020-03-16 16:00:00 11.7 19 Nordeste 58 Nordeste 0 1012.3 0 63
2020-03-16 15:00:00 12.3 22 Norte 45 Norte 0 1012 -0.1 60
2020-03-16 14:00:00 11.4 28 Norte 50 Norte 0 1012.3 0.5 64
2020-03-16 13:00:00 10.5 23 Norte 48 Nordeste 0 1012.3 0.9 64
2020-03-16 12:00:00 10.9 24 Norte 41 Norte 0 1012.1 1.7 61
2020-03-16 11:00:00 10.4 19 Norte 45 Norte 0 1011.8 2.4 66
2020-03-16 10:00:00 9.9 22 Norte 46 Norte 0 1011.4 2.4 66
2020-03-16 09:00:00 9.1 22 Nordeste 41 Norte 0 1010.4 1.8 70
2020-03-16 08:00:00 9 16 Norte 41 Nordeste 0 1009.4 1.5 70
2020-03-16 07:00:00 9 21 Norte 41 Norte 0 1009 1.4 71
2020-03-16 06:00:00 8.3 18 Norte 48 Norte 0.4 1008.6 1.1 76
2020-03-16 05:00:00 9.1 20 Norte 35 Norte 0 1007.9 0.8 72
2020-03-16 04:00:00 7 18 Norte 50 Nordeste 0.1 1007.6 0.9 87
2020-03-16 03:00:00 9.5 21 Norte 46 Norte 0 1007.5 1.1 66
2020-03-16 02:00:00 9.2 18 Norte 39 Norte 0 1007.1 1.1 70
2020-03-16 01:00:00 7.4 10 Nordeste 26 Norte 0 1006.7 1.2 79
2020-03-16 00:00:00 8.4 14 Norte 32 Norte 0.2 1006.4 1.3 78
2020-03-15 23:00:00 8.9 18 Norte 35 Norte 0.2 1006 1.5 74
2020-03-15 22:00:00 8.1 14 Noroeste 30 Noroeste 0 1005.5 1.2 71
2020-03-15 21:00:00 8.2 17 Noroeste 39 Noroeste 0 1005.1 1.2 71
2020-03-15 20:00:00 8.1 15 Noroeste 39 Noroeste 0 1004.5 0.4 70
2020-03-15 19:00:00 7.6 7 Oeste 18 Oeste 2.7 1004.3 0.7 82
2020-03-15 18:00:00 9.2 5 Oeste 24 Norte 0 1003.9 0.2 71
2020-03-15 17:00:00 8.2 19 Noroeste 39 Noroeste 0.8 1004.1 0.1 75
2020-03-15 16:00:00 8.4 9 Sur 15 Oeste 0.3 1003.6 -0.2 84
2020-03-15 15:00:00 8.2 4 Oeste 11 Sudoeste 0 1003.7 0.3 84
2020-03-15 14:00:00 7.2 3 Norte 33 Norte 2 1004 0.8 92
2020-03-15 13:00:00 7.6 22 Norte 41 Norte 1.8 1003.8 2.3 93
2020-03-15 12:00:00 8.7 17 Noroeste 41 Noroeste 0.5 1003.4 1.5 86
2020-03-15 11:00:00 8.3 20 Noroeste 46 Sudoeste 1.4 1003.2 0.7 94
2020-03-15 10:00:00 11.2 36 Sudoeste 48 Sudoeste 0 1001.5 -1.2 80
2020-03-15 09:00:00 9.2 12 Sur 28 Sudoeste 0 1001.9 -1.2 85
2020-03-15 08:00:00 8.5 15 Sur 22 Sur 0 1002.5 -0.9 89
2020-03-15 07:00:00 6.6 13 Sur 18 Sudeste 0 1002.7 -1.4 94
2020-03-15 06:00:00 6.5 14 Sur 21 Sur 0 1003.1 -1 94
2020-03-15 05:00:00 6 12 Sur 17 Oeste 0 1003.4 -0.8 95
2020-03-15 04:00:00 5 5 Sur 9 Sur 0 1004.1 -1.3 97
2020-03-15 03:00:00 5 5 Sur 15 Sur 0 1004.1 -2.2 97
2020-03-15 02:00:00 5.5 14 Sur 17 Sur 0 1004.2 -2.9 97
2020-03-15 01:00:00 6.4 10 Sur 13 Sur 0 1005.4 -2.1 96
2020-03-15 00:00:00 6.9 11 Sur 15 Sur 0 1006.3 -1.6 93
2020-03-14 23:00:00 8.6 4 Sudoeste 8 Sur 0 1007.1 -1 89
2020-03-14 22:00:00 9.3 0 Calma 5 Oeste 0 1007.5 -0.6 88
2020-03-14 21:00:00 9.9 3 Noroeste 13 Noroeste 0 1007.9 -0.1 85
2020-03-14 20:00:00 11.1 9 Norte 22 Norte 0 1008.1 -0.2 80
2020-03-14 19:00:00 12.4 12 Norte 24 Norte 0 1008.1 -0.5 73
2020-03-14 18:00:00 13.2 13 Norte 26 Norte 0 1008 -1.2 65
2020-03-14 17:00:00 13.8 12 Norte 28 Norte 0 1008.3 -1.7 62
2020-03-14 16:00:00 14.1 13 Norte 24 Norte 0 1008.6 -2.3 60
2020-03-14 15:00:00 14.8 12 Norte 22 Norte 0 1009.2 -2.2 57
2020-03-14 14:00:00 14.6 8 Norte 18 Norte 0 1010 -2.1 56
2020-03-14 13:00:00 14.4 8 Nordeste 17 Norte 0 1010.9 -1.3 57
2020-03-14 12:00:00 14 4 Sur 18 Sur 0 1011.4 -0.6 61
2020-03-14 11:00:00 11.3 9 Sur 15 Sur 0 1012.1 0.4 76
2020-03-14 10:00:00 8.9 5 Sur 11 Sudeste 0 1012.2 0.8 86
2020-03-14 09:00:00 7.2 8 Sur 13 Sur 0 1012 0.4 90
2020-03-14 08:00:00 6.5 6 Sur 13 Sur 0 1011.7 0.2 92
2020-03-14 07:00:00 6.6 13 Sur 24 Sur 0 1011.4 -0.5 92
2020-03-14 06:00:00 6.1 8 Sur 11 Sur 0 1011.6 -0.8 94
2020-03-14 05:00:00 5.8 7 Sur 11 Sur 0 1011.5 -1.1 95
2020-03-14 04:00:00 5.4 11 Sur 17 Sur 0 1011.9 -1.1 95
2020-03-14 03:00:00 5.6 8 Sur 13 Sur 0 1012.4 -0.8 95
2020-03-14 02:00:00 5.9 -- -- -- -- 0 1012.6 -0.5 93
2020-03-14 01:00:00 7.4 5 Sur 8 Sur 0 1013 0.2 86
2020-03-14 00:00:00 9.4 5 Nordeste 13 Norte 0 1013.2 1.2 78
2020-03-13 23:00:00 9.9 10 Norte 17 Norte 0 1013.1 1.4 77
2020-03-13 22:00:00 10.1 11 Norte 21 Norte 0 1012.8 1.7 77
2020-03-13 21:00:00 10.1 9 Norte 30 Norte 0 1012 1.2 78
2020-03-13 20:00:00 10.6 19 Norte 33 Norte 0 1011.7 0.8 76
2020-03-13 19:00:00 11.3 18 Norte 35 Norte 0 1011.1 -0.1 73
2020-03-13 18:00:00 11.9 22 Norte 37 Norte 0 1010.8 -1 71
2020-03-13 17:00:00 12.4 20 Norte 37 Norte 0 1010.9 -1.6 70
2020-03-13 16:00:00 12.3 19 Norte 37 Norte 0 1011.2 -1.6 70
2020-03-13 15:00:00 12.5 18 Norte 35 Noroeste 0 1011.8 -1.3 68
2020-03-13 14:00:00 11.8 18 Norte 33 Norte 0 1012.5 -0.6 70
2020-03-13 13:00:00 11.9 16 Norte 32 Nordeste 0 1012.8 -0.2 67
2020-03-13 12:00:00 11.6 20 Nordeste 32 Nordeste 0 1013.1 0.6 67
2020-03-13 11:00:00 11.3 14 Nordeste 30 Este 0 1013.1 0.9 66
2020-03-13 10:00:00 10.3 14 Norte 28 Norte 0 1013 1 68
2020-03-13 09:00:00 9.8 11 Norte 22 Nordeste 0 1012.5 0.6 72
2020-03-13 08:00:00 9.2 12 Norte 22 Norte 0 1012.2 0 76
2020-03-13 07:00:00 9.3 10 Norte 22 Nordeste 0 1012 -0.8 75
2020-03-13 06:00:00 9.2 12 Norte 26 Norte 0 1011.9 -1.3 75
2020-03-13 05:00:00 9.2 16 Nordeste 28 Norte 0 1012.2 -1.4 75
2020-03-13 04:00:00 9.3 13 Nordeste 28 Nordeste 0 1012.8 -0.8 72
2020-03-13 03:00:00 9.2 10 Norte 21 Norte 0 1013.2 -0.5 73
2020-03-13 02:00:00 8.8 9 Nordeste -- -- -- 1013.6 0.1 74
2020-03-13 01:00:00 8.7 8 Norte 18 Norte 0 1013.6 0.2 70
2020-03-13 00:00:00 8.9 8 Norte 18 Nordeste 0 1013.7 0.5 69
2020-03-12 23:00:00 9.2 11 Nordeste 28 Nordeste 0 1013.5 0.6 75
2020-03-12 22:00:00 9.8 14 Nordeste 30 Nordeste 0 1013.4 0.9 73
2020-03-12 21:00:00 10.2 19 Nordeste 32 Nordeste 0 1013.2 1 70
2020-03-12 20:00:00 10.6 12 Nordeste 33 Nordeste 0 1012.9 1 68
2020-03-12 19:00:00 11 15 Nordeste 30 Nordeste 0 1012.5 0.6 68
2020-03-12 18:00:00 11.5 16 Nordeste 35 Nordeste 0 1012.2 0.1 66
2020-03-12 17:00:00 11.7 18 Nordeste 32 Norte 0 1011.9 -0.6 65
2020-03-12 16:00:00 11.7 18 Nordeste 33 Nordeste 0 1011.9 -0.8 71
2020-03-12 15:00:00 11.8 14 Norte 35 Norte 0 1012.1 -0.5 73
2020-03-12 14:00:00 12.3 16 Norte 37 Norte 0 1012.5 0.2 79
2020-03-12 13:00:00 12.8 18 Norte 30 Norte 0 1012.7 0.5 77
2020-03-12 12:00:00 12.4 14 Norte 26 Norte 0 1012.6 0.9 81
2020-03-12 11:00:00 13.1 7 Norte 17 Nordeste 0 1012.3 1.1 79
2020-03-12 10:00:00 11.6 5 Norte 11 Norte 0 1012.2 1.4 90
2020-03-12 09:00:00 10.7 0 Calma 5 Sur 0 1011.7 1.2 92
2020-03-12 08:00:00 10.1 5 Sur 9 Sur 0 1011.2 0.9 94
2020-03-12 07:00:00 10.2 4 Sur 5 Sudeste 0 1010.8 -0.1 93
2020-03-12 06:00:00 10.1 3 Sur 8 Sudeste 0 1010.5 -0.8 94
2020-03-12 05:00:00 9.9 9 Sur 11 Sur 0 1010.3 -1.1 95
2020-03-12 04:00:00 10 5 Sur 11 Sur 0 1010.9 -0.5 94
2020-03-12 03:00:00 10 7 Sur 13 Sur 0 1011.3 -0.1 94
2020-03-12 02:00:00 10.1 5 Sur -- -- -- 1011.4 0.2 92
2020-03-12 01:00:00 10.1 6 Sur 8 Sur 0 1011.4 0.2 92
2020-03-12 00:00:00 11.1 2 Sur 8 Oeste 0 1011.4 0.3 86
2020-03-11 23:00:00 12.3 3 Sudoeste 8 Oeste 0 1011.2 0.3 80
2020-03-11 22:00:00 13.2 0 Calma 8 Oeste 0 1011.2 0.2 81
2020-03-11 21:00:00 14.1 3 Noroeste 9 Oeste 0 1011.1 0.3 78
2020-03-11 20:00:00 14.5 4 Oeste 9 Oeste 0 1010.9 0.3 76
2020-03-11 19:00:00 14.8 3 Noroeste 18 Oeste 0 1011 0.2 76
2020-03-11 18:00:00 14.7 10 Noroeste 30 Oeste 0 1010.8 -0.1 78
2020-03-11 17:00:00 14.1 14 Noroeste 32 Noroeste 0 1010.6 -0.8 82
2020-03-11 16:00:00 14.6 18 Noroeste 28 Noroeste 0 1010.8 -0.8 80
2020-03-11 15:00:00 15.2 11 Norte 18 Nordeste 0 1010.9 -1 78
2020-03-11 14:00:00 15.3 8 Norte 17 Norte 0 1011.4 -0.7 76
2020-03-11 13:00:00 15.5 6 Nordeste 13 Sudeste 0 1011.6 -0.4 74
2020-03-11 12:00:00 15.1 7 Este 17 Sudeste 0 1011.9 -0.1 76
2020-03-11 11:00:00 14.1 6 Sur 13 Noroeste 0 1012.1 0 77
2020-03-11 10:00:00 13.3 10 Sur 28 Sudeste 0 1012 -0.2 80
2020-03-11 09:00:00 11.8 6 Sur 13 Sur 0 1012 -0.3 88
2020-03-11 08:00:00 11.5 -- -- -- -- 0 1012.1 -0.3 89
2020-03-11 07:00:00 11.6 9 Sur 11 Sur 0 1012.2 -0.6 89
2020-03-11 06:00:00 11.5 9 Sur 11 Sur 0 1012.3 -1.1 91
2020-03-11 05:00:00 12.1 9 Sur 13 Sur 0 1012.4 -1.3 87
2020-03-11 04:00:00 12.3 8 Sur 11 Sur 0 1012.8 -1.3 86
2020-03-11 03:00:00 12.5 4 Sudoeste 8 Sudoeste 0 1013.4 -0.6 84
2020-03-11 02:00:00 12.5 5 Sur -- -- -- 1013.7 -0.5 84
2020-03-11 01:00:00 12.5 7 Sur 15 Sur 0 1014.1 -0.1 84
2020-03-11 00:00:00 13 9 Sur 22 Sur 0 1014 -0.3 84
2020-03-10 23:00:00 13.2 12 Sudoeste 18 Sur 0 1014.2 0.1 81
2020-03-10 22:00:00 13.8 9 Sur 15 Sur 0 1014.2 0.6 81
2020-03-10 21:00:00 14 8 Sudoeste 17 Sudoeste 0 1014.3 0.9 79
2020-03-10 20:00:00 14.2 9 Sur 17 Sur 0 1014.1 0.5 77
2020-03-10 19:00:00 14.7 13 Sur 26 Sur 0 1013.6 -0.1 75
2020-03-10 18:00:00 15.7 13 Sur 24 Sur 0 1013.4 -0.5 72
2020-03-10 17:00:00 15.8 13 Sur 22 Sudoeste 0 1013.6 -0.8 72
2020-03-10 16:00:00 15.9 17 Sur 30 Sur 0 1013.7 -1.2 71
2020-03-10 15:00:00 15.8 17 Sur 26 Sudoeste 0 1013.9 -1.4 70
2020-03-10 14:00:00 15.2 15 Sur 26 Sur 0 1014.4 -0.8 72
2020-03-10 13:00:00 14.8 13 Sur 24 Sur 0 1014.9 -0.1 72
2020-03-10 12:00:00 13.6 14 Sur 26 Sudoeste 0 1015.3 0.8 75
2020-03-10 11:00:00 13 15 Sudoeste 26 Sudoeste 0 1015.2 1.1 75
2020-03-10 10:00:00 11.8 9 Sur 17 Sudeste 0 1015 0.9 79
2020-03-10 09:00:00 10.3 2 Este 26 Sur 0 1014.5 -0.2 85
2020-03-10 08:00:00 10.4 13 Sur 22 Sur 0 1014.1 -0.5 83
2020-03-10 07:00:00 9.9 14 Sur 32 Sur 0 1014.1 -1.2 87
2020-03-10 06:00:00 9.2 9 Sur 15 Sudeste 0 1014.7 -1.1 89
2020-03-10 05:00:00 8.4 10 Sudeste 15 Sur 0 1014.6 -1.4 92
2020-03-10 04:00:00 8.3 13 Sur 17 Sur 0 1015.3 -1.2 91
2020-03-10 03:00:00 8.2 10 Sur 13 Sur 0 1015.8 -0.8 91
2020-03-10 02:00:00 8.4 5 Sur -- -- -- 1016 -0.8 91
2020-03-10 01:00:00 8.5 9 Sur 17 Sudeste 0 1016.5 -0.5 93
2020-03-10 00:00:00 9 2 Sur 11 Sur 0 1016.6 -0.2 93
2020-03-09 23:00:00 10.1 5 Sur 9 Sudoeste 0 1016.8 0.2 88
2020-03-09 22:00:00 10.8 -- -- -- -- 0 1017 0.5 86
2020-03-09 21:00:00 11.3 8 Sur 11 Sur 0 1016.8 0.4 83
2020-03-09 20:00:00 11.7 4 Oeste 18 Noroeste 0 1016.6 0 82
2020-03-09 19:00:00 12.5 7 Noroeste 21 Noroeste 0 1016.5 -0.3 77
2020-03-09 18:00:00 13.4 13 Noroeste 28 Noroeste 0 1016.4 -1.1 72
2020-03-09 17:00:00 14 14 Noroeste 30 Noroeste 0 1016.6 -1.5 70
2020-03-09 16:00:00 14.5 14 Noroeste 28 Noroeste 0 1016.8 -2 64
2020-03-09 15:00:00 14.4 13 Noroeste 33 Oeste 0 1017.5 -1.5 65
2020-03-09 14:00:00 14.4 11 Noroeste 21 Noroeste 0 1018.1 -0.8 61
2020-03-09 13:00:00 14.3 8 Noroeste 24 Oeste 0 1018.8 0.2 58
2020-03-09 12:00:00 13.2 13 Noroeste 24 Noroeste 0 1019 0.9 61
2020-03-09 11:00:00 12.2 13 Oeste 21 Sudoeste 0 1018.9 1.4 73
2020-03-09 10:00:00 8.7 8 Sur 24 Sur 0 1018.6 1.7 88
2020-03-09 09:00:00 6.8 6 Sur 17 Sur 0 1018.1 0.9 93
2020-03-09 08:00:00 6.1 8 Sur 15 Sur 0 1017.5 1.1 93
2020-03-09 07:00:00 7.1 8 Sudoeste 21 Sur 0 1016.9 0.1 90
2020-03-09 06:00:00 7.7 3 Sudeste 17 Sudoeste 0 1017.2 -0.3 88
2020-03-09 05:00:00 9.7 12 Sudoeste 17 Oeste 0 1016.4 -0.6 80
2020-03-09 04:00:00 9.8 12 Oeste 18 Oeste 0 1016.8 -0.4 80
2020-03-09 03:00:00 10 12 Oeste 18 Oeste 0 1017.5 0.5 80
2020-03-09 02:00:00 10.6 12 Oeste -- -- -- 1017 0 76
2020-03-09 01:00:00 10.6 8 Oeste 18 Oeste 0 1017.2 1.2 78
2020-03-09 00:00:00 10.9 12 Oeste 22 Oeste 0 1017 1.1 76
2020-03-08 23:00:00 10.9 9 Noroeste 32 Oeste 0 1017 1.5 82
2020-03-08 22:00:00 11.7 8 Oeste 21 Oeste 0 1016 1.3 76
2020-03-08 21:00:00 12 11 Oeste 21 Oeste 0 1015.9 1.9 75
2020-03-08 20:00:00 12.3 9 Noroeste 30 Noroeste 0 1015.5 1.7 76
2020-03-08 19:00:00 12.7 12 Oeste 33 Oeste 0 1014.7 1.9 73
2020-03-08 18:00:00 13 14 Noroeste 39 Noroeste 0 1014 1.1 67
2020-03-08 17:00:00 14.3 18 Noroeste 42 Noroeste 0 1013.8 1.2 63
2020-03-08 16:00:00 14.5 18 Noroeste 39 Oeste 0 1012.8 0.1 68
2020-03-08 15:00:00 14.3 28 Noroeste 46 Noroeste 0 1012.9 0.1 72
2020-03-08 14:00:00 14 19 Noroeste 33 Noroeste 0 1012.6 0.2 75
2020-03-08 13:00:00 13.5 13 Sur 22 Sudoeste 0 1012.7 0.9 84
2020-03-08 12:00:00 12.1 17 Sudoeste 30 Sudoeste 0.1 1012.8 1.2 87
2020-03-08 11:00:00 11.7 21 Sudoeste 41 Sudoeste 0.1 1012.4 1.2 87
2020-03-08 10:00:00 11.3 27 Sudoeste 46 Sudoeste 0 1011.8 1.1 86
2020-03-08 09:00:00 11.1 35 Sudoeste 50 Sudoeste 0 1011.6 0.7 85
2020-03-08 08:00:00 10.8 33 Sudoeste 50 Sudoeste 0 1011.2 0.1 86
2020-03-08 07:00:00 11 35 Sudoeste 48 Sudoeste 0 1010.7 -0.7 81
2020-03-08 06:00:00 11 26 Sudoeste 35 Sudoeste 0 1010.9 -1.1 77
2020-03-08 05:00:00 10.8 16 Sur 39 Sur 0 1011.1 -1.3 75
2020-03-08 04:00:00 10.8 25 Sur 42 Sur 0 1011.4 -1.3 73
2020-03-08 03:00:00 10.6 22 Sur 39 Sur 0 1012 -1.5 72
2020-03-08 02:00:00 9.9 15 Sur -- -- -- 1012.4 -1.9 72
2020-03-08 01:00:00 8.5 8 Sur 22 Sur 0 1012.7 -1.7 76
2020-03-08 00:00:00 8.8 12 Sur 22 Sur 0 1013.5 -0.9 75